Time;durP1;ratioP1;P1;durP2;ratioP2;P2;SDS_P1;SDS_P2;PMS_P1;PMS_P2;Temp;Humidity;BMP_temperature;BMP_pressure;BME280_temperature;BME280_humidity;BME280_pressure;Samples;Min_cycle;Max_cycle;Signal;HPM_P1;HPM_P2
2022/04/25 00:01:18;;;;;;;22.65;7.65;;;;;;;;;;5021006;28;20061;-51
2022/04/25 00:03:45;;;;;;;24.90;7.78;;;;;;;;;;5020469;28;20036;-50
2022/04/25 00:06:13;;;;;;;23.40;7.47;;;;;;;;;;5019391;28;20060;-52
2022/04/25 00:08:39;;;;;;;27.48;7.93;;;;;;;;;;5009731;28;20025;-51
2022/04/25 00:11:06;;;;;;;22.42;7.50;;;;;;;;;;5032663;28;20029;-50
2022/04/25 00:13:33;;;;;;;22.23;7.65;;;;;;;;;;5032089;28;20114;-50
2022/04/25 00:16:01;;;;;;;22.35;7.88;;;;;;;;;;5032208;28;20044;-49
2022/04/25 00:18:28;;;;;;;25.23;8.32;;;;;;;;;;5029893;28;20188;-51
2022/04/25 00:20:55;;;;;;;23.00;7.72;;;;;;;;;;5014807;28;20030;-50
2022/04/25 00:23:23;;;;;;;21.25;7.35;;;;;;;;;;5012570;28;20033;-49
2022/04/25 00:25:50;;;;;;;24.90;7.10;;;;;;;;;;5011648;28;20057;-49
2022/04/25 00:28:17;;;;;;;19.52;7.13;;;;;;;;;;5011877;28;20034;-49
2022/04/25 00:30:44;;;;;;;25.25;7.55;;;;;;;;;;4994285;28;20473;-49
2022/04/25 00:33:11;;;;;;;22.33;8.23;;;;;;;;;;5012326;28;20029;-49
2022/04/25 00:35:38;;;;;;;24.95;7.70;;;;;;;;;;4993872;28;20422;-51
2022/04/25 00:38:05;;;;;;;26.13;7.05;;;;;;;;;;5012353;28;20804;-51
2022/04/25 00:40:32;;;;;;;25.98;7.50;;;;;;;;;;5012490;28;20068;-48
2022/04/25 00:42:59;;;;;;;21.42;7.50;;;;;;;;;;5012235;28;20112;-50
2022/04/25 00:45:26;;;;;;;20.63;6.93;;;;;;;;;;5011714;28;20483;-53
2022/04/25 00:47:53;;;;;;;22.65;6.53;;;;;;;;;;5012619;28;20124;-51
2022/04/25 00:50:20;;;;;;;24.88;7.30;;;;;;;;;;5018145;28;20025;-52
2022/04/25 00:52:47;;;;;;;27.35;7.93;;;;;;;;;;5021760;28;20387;-52
2022/04/25 00:55:15;;;;;;;18.70;6.90;;;;;;;;;;5024977;28;20024;-52
2022/04/25 00:57:43;;;;;;;24.88;7.40;;;;;;;;;;5031168;28;20509;-52
2022/04/25 01:00:12;;;;;;;21.92;7.53;;;;;;;;;;5031895;28;20037;-53
2022/04/25 01:02:39;;;;;;;22.52;7.03;;;;;;;;;;5030848;28;20475;-53
2022/04/25 01:05:06;;;;;;;24.63;7.43;;;;;;;;;;5027251;28;20830;-51
2022/04/25 01:07:35;;;;;;;21.92;6.90;;;;;;;;;;5024762;28;20068;-51
2022/04/25 01:10:03;;;;;;;21.65;7.07;;;;;;;;;;5020753;28;20087;-51
2022/04/25 01:12:30;;;;;;;27.08;7.57;;;;;;;;;;5017958;28;20096;-50
2022/04/25 01:14:57;;;;;;;30.42;7.53;;;;;;;;;;5019753;28;20026;-50
2022/04/25 01:17:24;;;;;;;28.33;7.50;;;;;;;;;;5019104;28;20037;-51
2022/04/25 01:19:51;;;;;;;30.20;7.80;;;;;;;;;;5020426;28;20025;-49
2022/04/25 01:22:20;;;;;;;27.95;8.13;;;;;;;;;;5020917;28;20446;-50
2022/04/25 01:27:33;;;;;;;31.88;7.25;;;;;;;;;;5010777;28;20036;-50
2022/04/25 01:30:00;;;;;;;26.42;7.32;;;;;;;;;;5011531;28;20483;-52
2022/04/25 01:32:27;;;;;;;25.92;6.88;;;;;;;;;;5020979;28;20120;-50
2022/04/25 01:34:54;;;;;;;24.55;7.68;;;;;;;;;;5031082;28;20029;-52
2022/04/25 01:37:21;;;;;;;29.60;7.95;;;;;;;;;;5031182;28;20022;-51
2022/04/25 01:39:50;;;;;;;32.03;8.18;;;;;;;;;;5030758;28;20026;-50
2022/04/25 01:42:18;;;;;;;48.65;13.68;;;;;;;;;;5029260;28;20029;-49
2022/04/25 01:44:45;;;;;;;117.43;26.38;;;;;;;;;;5030911;28;20068;-51
2022/04/25 01:47:12;;;;;;;134.52;30.42;;;;;;;;;;5012937;28;20536;-49
2022/04/25 01:49:39;;;;;;;140.45;38.05;;;;;;;;;;5030226;28;20025;-51
2022/04/25 01:52:15;;;;;;;162.50;44.80;;;;;;;;;;5030888;28;20036;-50
2022/04/25 01:54:43;;;;;;;172.68;48.35;;;;;;;;;;5030682;28;20038;-50
2022/04/25 01:57:10;;;;;;;178.77;52.10;;;;;;;;;;5030662;28;20049;-50
2022/04/25 01:59:37;;;;;;;174.45;52.45;;;;;;;;;;5030443;28;20060;-53
2022/04/25 02:02:14;;;;;;;167.25;49.63;;;;;;;;;;5030492;28;20104;-52
2022/04/25 02:04:41;;;;;;;145.60;43.97;;;;;;;;;;5012190;28;20028;-51
2022/04/25 02:07:09;;;;;;;132.88;41.40;;;;;;;;;;5030273;28;20030;-53
2022/04/25 02:09:37;;;;;;;119.20;38.80;;;;;;;;;;5030330;28;20025;-51
2022/04/25 02:12:04;;;;;;;128.98;38.92;;;;;;;;;;5027825;28;20424;-51
2022/04/25 02:14:31;;;;;;;124.70;39.38;;;;;;;;;;5030187;28;20529;-52
2022/04/25 02:16:59;;;;;;;119.30;37.35;;;;;;;;;;5015873;28;20494;-52
2022/04/25 02:19:26;;;;;;;144.20;39.78;;;;;;;;;;5011424;28;20030;-53
2022/04/25 02:21:54;;;;;;;117.45;36.03;;;;;;;;;;5011631;28;20045;-53
2022/04/25 02:24:21;;;;;;;119.25;37.13;;;;;;;;;;5011424;28;20121;-52
2022/04/25 02:26:49;;;;;;;108.97;35.60;;;;;;;;;;5016425;28;20065;-51
2022/04/25 02:29:18;;;;;;;97.95;31.35;;;;;;;;;;5011102;28;20562;-53
2022/04/25 02:31:45;;;;;;;94.93;31.73;;;;;;;;;;5011748;28;20042;-52
2022/04/25 02:34:12;;;;;;;91.35;30.27;;;;;;;;;;5011745;28;20041;-50
2022/04/25 02:36:39;;;;;;;96.43;31.10;;;;;;;;;;5011099;28;20030;-50
2022/04/25 02:39:06;;;;;;;88.03;29.13;;;;;;;;;;5011161;28;20037;-51
2022/04/25 02:41:33;;;;;;;97.53;30.98;;;;;;;;;;5011930;28;20562;-51
2022/04/25 02:44:00;;;;;;;85.88;29.90;;;;;;;;;;5020945;28;20095;-51
2022/04/25 02:46:27;;;;;;;84.22;29.05;;;;;;;;;;5031321;28;20029;-50
2022/04/25 02:48:55;;;;;;;83.03;29.77;;;;;;;;;;5030611;28;20025;-50
2022/04/25 02:51:23;;;;;;;82.38;27.35;;;;;;;;;;5031195;28;20502;-51
2022/04/25 02:53:50;;;;;;;77.50;28.40;;;;;;;;;;5033114;28;20033;-50
2022/04/25 02:56:17;;;;;;;87.10;29.55;;;;;;;;;;5034460;28;20022;-52
2022/04/25 02:58:44;;;;;;;80.63;27.48;;;;;;;;;;5035189;28;20024;-51
2022/04/25 03:01:11;;;;;;;75.40;26.45;;;;;;;;;;5034615;28;20033;-53
2022/04/25 03:03:39;;;;;;;68.43;25.63;;;;;;;;;;5035093;28;20543;-51
2022/04/25 03:06:09;;;;;;;76.60;25.95;;;;;;;;;;5034165;28;20414;-51
2022/04/25 03:08:37;;;;;;;62.90;24.23;;;;;;;;;;5035248;28;20029;-52
2022/04/25 03:11:05;;;;;;;66.13;23.02;;;;;;;;;;5034539;28;20502;-54
2022/04/25 03:13:34;;;;;;;70.55;23.70;;;;;;;;;;5034393;28;20104;-52
2022/04/25 03:16:01;;;;;;;68.00;22.83;;;;;;;;;;5034903;28;20033;-51
2022/04/25 03:18:29;;;;;;;68.47;22.20;;;;;;;;;;5034385;28;20087;-52
2022/04/25 03:20:56;;;;;;;57.92;20.35;;;;;;;;;;5034931;28;20022;-51
2022/04/25 03:23:23;;;;;;;62.70;20.70;;;;;;;;;;5034133;28;20364;-53
2022/04/25 03:25:51;;;;;;;68.45;19.80;;;;;;;;;;5016733;28;20054;-52
2022/04/25 03:28:18;;;;;;;59.92;19.90;;;;;;;;;;5033987;28;20021;-52
2022/04/25 03:30:45;;;;;;;58.63;20.73;;;;;;;;;;5033677;28;20099;-52
2022/04/25 03:33:12;;;;;;;52.67;19.65;;;;;;;;;;5016870;28;20036;-51
2022/04/25 03:35:40;;;;;;;51.05;19.15;;;;;;;;;;5033832;28;20021;-51
2022/04/25 03:38:07;;;;;;;56.40;18.80;;;;;;;;;;5034701;28;20560;-53
2022/04/25 03:40:38;;;;;;;54.20;18.70;;;;;;;;;;5033555;28;20083;-52
2022/04/25 03:43:08;;;;;;;53.97;17.52;;;;;;;;;;5034584;28;20499;-54
2022/04/25 03:45:35;;;;;;;54.50;18.48;;;;;;;;;;5034005;28;20472;-52
2022/04/25 03:48:03;;;;;;;45.63;17.40;;;;;;;;;;5035581;28;20033;-53
2022/04/25 03:50:34;;;;;;;50.80;17.58;;;;;;;;;;5035573;28;20037;-52
2022/04/25 03:53:11;;;;;;;46.88;16.92;;;;;;;;;;5034008;28;20029;-53
2022/04/25 03:58:23;;;;;;;47.05;15.55;;;;;;;;;;5034617;28;20049;-51
2022/04/25 04:00:50;;;;;;;46.45;15.27;;;;;;;;;;5034020;28;20052;-52
2022/04/25 04:03:18;;;;;;;42.45;14.02;;;;;;;;;;5033809;28;20040;-51
2022/04/25 04:05:48;;;;;;;44.10;15.30;;;;;;;;;;5032410;28;20029;-50
2022/04/25 04:08:16;;;;;;;48.13;15.55;;;;;;;;;;5033203;28;20071;-53
2022/04/25 04:10:43;;;;;;;46.20;15.10;;;;;;;;;;5033936;28;20021;-53
2022/04/25 04:13:10;;;;;;;42.67;13.40;;;;;;;;;;5033590;28;20033;-52
2022/04/25 04:15:37;;;;;;;41.70;14.15;;;;;;;;;;5033297;28;20041;-52
2022/04/25 04:18:04;;;;;;;42.63;13.85;;;;;;;;;;5033888;28;20021;-51
2022/04/25 04:20:32;;;;;;;46.92;12.75;;;;;;;;;;5033152;28;20044;-53
2022/04/25 04:22:59;;;;;;;36.28;11.98;;;;;;;;;;5033083;28;20029;-51
2022/04/25 04:25:26;;;;;;;45.65;12.10;;;;;;;;;;5033327;28;20045;-52
2022/04/25 04:27:53;;;;;;;37.22;12.60;;;;;;;;;;5033389;28;20026;-53
2022/04/25 04:30:20;;;;;;;34.15;11.48;;;;;;;;;;5032624;28;20045;-51
2022/04/25 04:32:47;;;;;;;35.22;11.07;;;;;;;;;;5033088;28;20026;-51
2022/04/25 04:38:01;;;;;;;34.40;10.48;;;;;;;;;;5033476;28;20044;-51
2022/04/25 04:40:28;;;;;;;31.45;10.63;;;;;;;;;;5032871;28;20072;-53
2022/04/25 04:42:55;;;;;;;31.35;10.15;;;;;;;;;;5032623;28;20073;-51
2022/04/25 04:45:22;;;;;;;28.83;10.50;;;;;;;;;;5032846;28;20382;-51
2022/04/25 04:47:49;;;;;;;28.73;10.45;;;;;;;;;;5033177;28;20553;-52
2022/04/25 04:50:16;;;;;;;30.63;10.13;;;;;;;;;;5015313;28;20030;-51
2022/04/25 04:52:45;;;;;;;32.42;9.93;;;;;;;;;;5032827;28;20084;-50
2022/04/25 04:55:12;;;;;;;29.40;10.07;;;;;;;;;;5032435;28;20032;-51
2022/04/25 04:57:40;;;;;;;32.35;9.30;;;;;;;;;;5033029;28;20398;-50
2022/04/25 05:00:08;;;;;;;29.42;9.43;;;;;;;;;;5032204;28;20028;-51
2022/04/25 05:02:35;;;;;;;25.15;8.80;;;;;;;;;;5032755;28;20076;-50
2022/04/25 05:05:03;;;;;;;29.73;9.57;;;;;;;;;;5032770;28;20424;-51
2022/04/25 05:07:30;;;;;;;23.40;8.95;;;;;;;;;;5032365;28;20037;-51
2022/04/25 05:09:57;;;;;;;23.75;8.55;;;;;;;;;;5032926;28;20029;-50
2022/04/25 05:12:26;;;;;;;22.73;7.93;;;;;;;;;;5031940;28;20030;-53
2022/04/25 05:14:54;;;;;;;22.85;8.63;;;;;;;;;;5032598;28;20167;-50
2022/04/25 05:17:22;;;;;;;26.55;8.70;;;;;;;;;;5014222;28;20086;-50
2022/04/25 05:19:50;;;;;;;20.92;8.45;;;;;;;;;;5031897;28;20040;-51
2022/04/25 05:22:17;;;;;;;26.73;8.13;;;;;;;;;;5014138;28;20114;-51
2022/04/25 05:24:44;;;;;;;23.00;7.55;;;;;;;;;;5031865;28;20483;-51
2022/04/25 05:27:11;;;;;;;23.00;7.82;;;;;;;;;;5032054;28;20096;-52
2022/04/25 05:29:38;;;;;;;19.30;7.70;;;;;;;;;;5032257;28;20021;-52
2022/04/25 05:32:05;;;;;;;21.13;7.80;;;;;;;;;;5031669;28;20065;-53
2022/04/25 05:34:32;;;;;;;23.85;7.78;;;;;;;;;;5031517;28;20029;-52
2022/04/25 05:36:59;;;;;;;19.77;7.55;;;;;;;;;;5032243;28;20026;-51
2022/04/25 05:39:26;;;;;;;19.08;7.60;;;;;;;;;;5032143;28;20087;-51
2022/04/25 05:41:53;;;;;;;20.85;6.50;;;;;;;;;;5032237;28;20037;-52
2022/04/25 05:44:20;;;;;;;16.83;6.80;;;;;;;;;;5013796;28;20562;-51
2022/04/25 05:46:47;;;;;;;22.20;6.45;;;;;;;;;;5031892;28;20075;-54
2022/04/25 05:51:59;;;;;;;18.92;6.25;;;;;;;;;;5031813;28;20135;-53
2022/04/25 05:54:27;;;;;;;17.40;6.30;;;;;;;;;;5031828;28;20026;-51
2022/04/25 05:56:54;;;;;;;17.67;5.72;;;;;;;;;;5031696;28;20026;-51
2022/04/25 05:59:21;;;;;;;19.02;6.63;;;;;;;;;;5031774;28;20075;-54
2022/04/25 06:01:48;;;;;;;15.70;6.18;;;;;;;;;;5012749;28;20068;-50
2022/04/25 06:04:15;;;;;;;18.02;5.85;;;;;;;;;;5032030;28;20033;-52
2022/04/25 06:06:42;;;;;;;14.60;5.93;;;;;;;;;;5031191;28;20026;-52
2022/04/25 06:09:09;;;;;;;14.88;6.32;;;;;;;;;;5031681;28;20387;-53
2022/04/25 06:11:36;;;;;;;16.70;6.20;;;;;;;;;;5031587;28;20104;-51
2022/04/25 06:14:03;;;;;;;18.80;5.65;;;;;;;;;;5032010;28;20036;-51
2022/04/25 06:16:30;;;;;;;18.08;5.78;;;;;;;;;;5031253;28;20112;-54
2022/04/25 06:18:57;;;;;;;17.00;5.72;;;;;;;;;;5031552;28;20026;-51
2022/04/25 06:21:24;;;;;;;17.17;5.40;;;;;;;;;;5031728;28;20037;-53
2022/04/25 06:23:51;;;;;;;15.25;5.40;;;;;;;;;;5031172;28;20025;-51
2022/04/25 06:26:18;;;;;;;12.90;5.07;;;;;;;;;;5031756;28;20102;-51
2022/04/25 06:28:45;;;;;;;11.60;5.05;;;;;;;;;;5033832;28;20439;-53
2022/04/25 06:31:13;;;;;;;16.00;5.57;;;;;;;;;;5192104;22;20023;-49
2022/04/25 06:33:40;;;;;;;11.77;4.90;;;;;;;;;;4993680;28;20042;-48
2022/04/25 06:36:07;;;;;;;13.40;5.30;;;;;;;;;;4995481;28;20027;-46
2022/04/25 06:38:34;;;;;;;11.10;4.40;;;;;;;;;;4996340;28;20029;-48
2022/04/25 06:41:01;;;;;;;12.38;4.60;;;;;;;;;;4995683;28;20694;-48
2022/04/25 06:43:30;;;;;;;12.85;4.45;;;;;;;;;;4996180;28;20415;-48
2022/04/25 06:45:57;;;;;;;10.57;4.93;;;;;;;;;;4995619;28;20395;-48
2022/04/25 06:48:24;;;;;;;13.88;4.63;;;;;;;;;;4993879;28;20050;-48
2022/04/25 06:50:53;;;;;;;12.52;4.45;;;;;;;;;;4994822;28;20372;-46
2022/04/25 06:53:20;;;;;;;12.77;4.63;;;;;;;;;;4994867;28;20038;-46
2022/04/25 06:55:47;;;;;;;10.95;4.57;;;;;;;;;;4994879;28;20106;-46
2022/04/25 06:58:14;;;;;;;15.23;4.75;;;;;;;;;;4995903;28;20098;-46
2022/04/25 07:00:41;;;;;;;11.25;4.45;;;;;;;;;;4995312;28;20480;-46
2022/04/25 07:03:08;;;;;;;11.20;4.25;;;;;;;;;;4995815;28;20031;-46
2022/04/25 07:05:35;;;;;;;8.10;3.63;;;;;;;;;;4994966;28;20027;-46
2022/04/25 07:08:02;;;;;;;9.93;4.35;;;;;;;;;;4995858;28;20026;-46
2022/04/25 07:10:29;;;;;;;9.88;4.05;;;;;;;;;;4995748;28;20030;-47
2022/04/25 07:12:56;;;;;;;10.02;4.03;;;;;;;;;;4995350;28;20472;-46
2022/04/25 07:15:24;;;;;;;10.27;4.28;;;;;;;;;;4994803;28;20492;-48
2022/04/25 07:17:55;;;;;;;11.38;4.07;;;;;;;;;;4995708;28;20027;-49
2022/04/25 07:20:24;;;;;;;12.23;4.60;;;;;;;;;;4995005;28;20034;-46
2022/04/25 07:31:07;;;;;;;9.07;3.63;;;;;;;;;;4995272;28;20041;-49
2022/04/25 07:33:36;;;;;;;8.85;3.85;;;;;;;;;;5013152;28;20077;-49
2022/04/25 07:36:03;;;;;;;9.48;3.63;;;;;;;;;;5014326;28;20030;-49
2022/04/25 07:38:30;;;;;;;6.82;3.38;;;;;;;;;;5014461;28;20073;-48
2022/04/25 07:40:57;;;;;;;8.18;3.67;;;;;;;;;;5014363;28;20026;-48
2022/04/25 07:43:24;;;;;;;8.00;3.20;;;;;;;;;;5014058;28;20026;-48
2022/04/25 07:45:52;;;;;;;8.25;3.95;;;;;;;;;;4996621;28;20030;-48
2022/04/25 07:48:19;;;;;;;8.02;3.25;;;;;;;;;;5014153;28;20037;-48
2022/04/25 07:50:46;;;;;;;6.82;3.03;;;;;;;;;;5014555;28;20018;-49
2022/04/25 07:53:14;;;;;;;8.52;3.47;;;;;;;;;;5013944;28;20034;-49
2022/04/25 07:55:41;;;;;;;7.45;2.78;;;;;;;;;;5014089;28;20029;-48
2022/04/25 07:58:08;;;;;;;5.82;2.72;;;;;;;;;;5014176;28;20519;-49
2022/04/25 08:00:42;;;;;;;9.65;3.25;;;;;;;;;;5014163;28;20026;-48
2022/04/25 08:03:09;;;;;;;6.60;2.92;;;;;;;;;;5014194;28;20104;-48
2022/04/25 08:05:36;;;;;;;6.78;2.90;;;;;;;;;;5013581;28;20026;-49
2022/04/25 08:08:03;;;;;;;5.32;3.00;;;;;;;;;;5013679;28;20083;-48
2022/04/25 08:10:30;;;;;;;7.70;3.05;;;;;;;;;;5013923;28;20486;-48
2022/04/25 08:18:27;;;;;;;9.63;3.35;;;;;;;;;;5013605;28;20049;-48
2022/04/25 08:20:54;;;;;;;6.28;2.83;;;;;;;;;;4996447;28;20026;-48
2022/04/25 08:23:22;;;;;;;4.90;2.45;;;;;;;;;;5013992;28;20375;-49
2022/04/25 08:25:49;;;;;;;9.52;2.45;;;;;;;;;;5013067;28;20041;-49
2022/04/25 08:28:16;;;;;;;5.43;2.22;;;;;;;;;;5013016;28;20056;-49
2022/04/25 08:30:43;;;;;;;4.97;2.33;;;;;;;;;;5013874;28;20448;-48
2022/04/25 08:33:11;;;;;;;8.90;2.83;;;;;;;;;;5013470;28;20061;-48
2022/04/25 08:35:38;;;;;;;5.35;2.65;;;;;;;;;;5012679;28;20530;-48
2022/04/25 08:38:05;;;;;;;4.97;2.40;;;;;;;;;;5012377;28;20480;-50
2022/04/25 08:40:33;;;;;;;5.28;2.45;;;;;;;;;;5013574;28;20419;-49
2022/04/25 08:43:00;;;;;;;5.75;2.22;;;;;;;;;;5013565;28;20143;-48
2022/04/25 08:45:28;;;;;;;4.50;2.42;;;;;;;;;;5012840;28;20365;-48
2022/04/25 08:47:59;;;;;;;4.30;2.45;;;;;;;;;;5012611;28;20022;-49
2022/04/25 08:50:26;;;;;;;4.25;2.20;;;;;;;;;;5013011;28;20018;-49
2022/04/25 08:52:54;;;;;;;6.43;2.58;;;;;;;;;;5012525;28;20436;-49
2022/04/25 08:55:22;;;;;;;5.60;2.22;;;;;;;;;;5012663;28;20192;-49
2022/04/25 08:57:50;;;;;;;6.13;2.70;;;;;;;;;;5013087;28;20021;-49
2022/04/25 09:00:17;;;;;;;5.25;2.40;;;;;;;;;;5013144;28;20033;-49
2022/04/25 09:02:50;;;;;;;7.95;2.63;;;;;;;;;;5012507;28;20029;-48
2022/04/25 09:05:17;;;;;;;3.15;2.00;;;;;;;;;;5013282;28;20089;-48
2022/04/25 09:07:44;;;;;;;5.72;2.33;;;;;;;;;;5012750;28;20025;-49
2022/04/25 09:10:12;;;;;;;3.42;2.00;;;;;;;;;;5012873;28;20022;-48
2022/04/25 09:12:42;;;;;;;4.15;2.17;;;;;;;;;;5012498;28;20037;-49
2022/04/25 09:15:09;;;;;;;4.25;2.20;;;;;;;;;;5012504;28;20472;-49
2022/04/25 09:17:38;;;;;;;4.38;1.92;;;;;;;;;;5012583;28;20018;-49
2022/04/25 09:20:06;;;;;;;4.15;2.03;;;;;;;;;;5012357;28;20032;-49
2022/04/25 09:22:35;;;;;;;5.78;2.20;;;;;;;;;;5012427;28;20026;-49
2022/04/25 09:25:08;;;;;;;4.30;1.95;;;;;;;;;;5012357;28;20546;-48
2022/04/25 09:27:35;;;;;;;4.00;2.15;;;;;;;;;;5012942;28;20097;-48
2022/04/25 09:30:18;;;;;;;4.28;1.83;;;;;;;;;;4994523;28;20372;-48
2022/04/25 09:32:45;;;;;;;4.45;1.90;;;;;;;;;;5012513;28;20100;-48
2022/04/25 09:35:27;;;;;;;3.88;1.77;;;;;;;;;;5012431;28;20084;-48
2022/04/25 09:37:54;;;;;;;4.13;1.80;;;;;;;;;;5012222;28;20041;-48
2022/04/25 09:40:22;;;;;;;4.07;1.77;;;;;;;;;;5012433;28;20026;-48
2022/04/25 09:43:03;;;;;;;4.15;1.92;;;;;;;;;;5011888;28;20058;-49
2022/04/25 09:45:30;;;;;;;4.55;2.08;;;;;;;;;;5012381;28;20030;-48
2022/04/25 09:47:58;;;;;;;3.40;1.80;;;;;;;;;;5011763;28;20034;-49
2022/04/25 09:50:28;;;;;;;3.45;1.50;;;;;;;;;;5011548;28;20530;-48
2022/04/25 09:52:57;;;;;;;5.47;1.65;;;;;;;;;;5012359;28;20108;-49
2022/04/25 09:55:25;;;;;;;4.28;1.83;;;;;;;;;;5012079;28;20022;-48
2022/04/25 09:57:53;;;;;;;5.82;1.60;;;;;;;;;;4994573;28;20427;-48
2022/04/25 10:00:39;;;;;;;4.43;1.75;;;;;;;;;;5011938;28;20053;-48
2022/04/25 10:03:06;;;;;;;4.50;1.70;;;;;;;;;;5013607;28;20029;-49
2022/04/25 10:05:41;;;;;;;3.63;1.50;;;;;;;;;;5015893;28;20057;-48
2022/04/25 10:08:09;;;;;;;3.33;1.42;;;;;;;;;;5016402;28;20483;-49
2022/04/25 10:10:40;;;;;;;2.33;1.45;;;;;;;;;;5016057;28;20026;-48
2022/04/25 10:13:07;;;;;;;2.97;1.35;;;;;;;;;;5015845;28;20069;-48
2022/04/25 10:15:34;;;;;;;3.75;1.63;;;;;;;;;;5016228;28;20575;-48
2022/04/25 10:18:02;;;;;;;2.17;1.38;;;;;;;;;;5015657;28;20049;-49
2022/04/25 10:20:29;;;;;;;5.05;1.58;;;;;;;;;;5015735;28;20044;-49
2022/04/25 10:22:58;;;;;;;2.63;1.58;;;;;;;;;;5015727;28;20026;-48
2022/04/25 10:25:26;;;;;;;3.15;1.40;;;;;;;;;;5015830;28;20145;-48
2022/04/25 10:27:53;;;;;;;3.08;1.70;;;;;;;;;;5016256;28;20061;-49
2022/04/25 10:30:21;;;;;;;2.10;1.30;;;;;;;;;;5015463;28;20022;-49
2022/04/25 10:32:48;;;;;;;2.55;1.38;;;;;;;;;;5015248;28;20474;-49
2022/04/25 10:35:18;;;;;;;2.72;1.20;;;;;;;;;;5015626;28;20041;-49
2022/04/25 10:37:45;;;;;;;3.80;1.65;;;;;;;;;;5015156;28;20387;-49
2022/04/25 10:40:13;;;;;;;3.53;1.10;;;;;;;;;;5015490;28;20422;-49
2022/04/25 10:45:58;;;;;;;2.42;1.42;;;;;;;;;;5015694;28;20092;-49
2022/04/25 10:48:26;;;;;;;3.20;1.30;;;;;;;;;;5015882;28;20018;-49
2022/04/25 10:51:16;;;;;;;2.83;1.40;;;;;;;;;;5014707;28;20029;-49
2022/04/25 10:54:02;;;;;;;2.03;1.17;;;;;;;;;;5015674;28;20120;-49
2022/04/25 10:56:30;;;;;;;4.43;1.40;;;;;;;;;;5014617;28;20506;-49
2022/04/25 10:59:15;;;;;;;3.45;1.27;;;;;;;;;;5015579;28;20037;-49
2022/04/25 11:01:48;;;;;;;4.32;1.45;;;;;;;;;;5014908;28;20129;-49
2022/04/25 11:04:15;;;;;;;6.18;1.60;;;;;;;;;;5015243;28;20101;-49
2022/04/25 11:06:42;;;;;;;4.25;1.45;;;;;;;;;;5014487;28;20022;-49
2022/04/25 11:09:09;;;;;;;2.38;1.20;;;;;;;;;;5015471;28;20018;-49
2022/04/25 11:11:51;;;;;;;4.28;1.05;;;;;;;;;;5014621;28;20518;-49
2022/04/25 11:14:19;;;;;;;5.25;1.10;;;;;;;;;;5014559;28;20029;-49
2022/04/25 11:17:18;;;;;;;3.22;1.13;;;;;;;;;;5014291;28;20022;-49
2022/04/25 11:19:48;;;;;;;3.60;1.00;;;;;;;;;;4962001;28;20399;-48
2022/04/25 11:22:33;;;;;;;4.05;1.10;;;;;;;;;;5014207;28;20507;-49
2022/04/25 11:25:20;;;;;;;4.75;1.40;;;;;;;;;;5008892;28;20576;-49
2022/04/25 11:28:06;;;;;;;3.25;1.25;;;;;;;;;;4980554;28;20516;-44
2022/04/25 11:30:33;;;;;;;6.60;1.40;;;;;;;;;;4992588;28;20029;-48
2022/04/25 11:33:07;;;;;;;7.82;1.45;;;;;;;;;;4999487;28;20050;-41
2022/04/25 11:35:34;;;;;;;5.97;1.30;;;;;;;;;;5001910;28;20032;-50
2022/04/25 11:38:01;;;;;;;4.60;1.20;;;;;;;;;;5012270;28;20029;-51
2022/04/25 11:40:28;;;;;;;5.18;1.17;;;;;;;;;;5006053;28;20058;-53
2022/04/25 11:42:56;;;;;;;5.30;1.38;;;;;;;;;;4993990;28;20025;-51
2022/04/25 11:45:23;;;;;;;6.28;1.38;;;;;;;;;;4981721;28;20060;-53
2022/04/25 11:47:50;;;;;;;5.47;1.30;;;;;;;;;;5002655;28;20062;-51
2022/04/25 11:50:23;;;;;;;4.90;1.15;;;;;;;;;;4999149;28;20456;-55
2022/04/25 11:52:51;;;;;;;8.32;1.33;;;;;;;;;;4996849;28;20030;-53
2022/04/25 11:55:19;;;;;;;3.97;1.27;;;;;;;;;;5005903;28;20506;-51
2022/04/25 11:57:46;;;;;;;4.72;1.55;;;;;;;;;;5005626;28;20044;-55
2022/04/25 12:00:17;;;;;;;10.07;1.55;;;;;;;;;;5000565;28;20101;-50
2022/04/25 12:02:45;;;;;;;7.15;1.50;;;;;;;;;;4995733;28;20034;-53
2022/04/25 12:05:12;;;;;;;5.38;1.30;;;;;;;;;;5011508;28;20022;-48
2022/04/25 12:15:34;;;;;;;6.28;1.40;;;;;;;;;;4992965;28;20026;-48
2022/04/25 12:15:59;;;;;;;3.90;0.93;;;;;;;;;;5006553;28;20044;-50
2022/04/25 12:18:30;;;;;;;4.47;1.20;;;;;;;;;;5013750;28;20467;-49
2022/04/25 12:21:13;;;;;;;7.57;1.70;;;;;;;;;;5000806;28;20254;-44
2022/04/25 12:23:43;;;;;;;6.78;1.50;;;;;;;;;;4982603;28;20055;-52
2022/04/25 12:26:29;;;;;;;6.25;1.38;;;;;;;;;;4992392;28;20026;-52
2022/04/25 12:28:59;;;;;;;3.85;1.30;;;;;;;;;;4993296;28;20096;-52
2022/04/25 12:31:27;;;;;;;3.92;1.52;;;;;;;;;;4994334;28;20030;-53
2022/04/25 12:33:54;;;;;;;7.75;1.50;;;;;;;;;;4994210;28;20504;-53
2022/04/25 12:36:21;;;;;;;9.27;1.70;;;;;;;;;;5003446;28;20120;-54
2022/04/25 12:38:51;;;;;;;6.30;1.45;;;;;;;;;;5011371;28;20180;-53
2022/04/25 12:41:26;;;;;;;7.18;1.70;;;;;;;;;;5011636;28;20074;-54
2022/04/25 12:43:54;;;;;;;6.80;1.50;;;;;;;;;;5010770;28;20487;-53
2022/04/25 12:46:36;;;;;;;5.45;1.58;;;;;;;;;;5012096;28;20025;-53
2022/04/25 12:49:11;;;;;;;4.07;1.63;;;;;;;;;;5003542;28;20512;-54
2022/04/25 12:51:42;;;;;;;7.53;1.50;;;;;;;;;;4992820;28;20046;-50
2022/04/25 12:54:25;;;;;;;9.52;1.77;;;;;;;;;;4992712;28;20034;-56
2022/04/25 12:57:15;;;;;;;6.85;1.52;;;;;;;;;;4993127;28;20026;-43
2022/04/25 12:59:43;;;;;;;9.07;1.70;;;;;;;;;;4999882;28;20052;-49
2022/04/25 13:02:15;;;;;;;7.18;1.50;;;;;;;;;;4998209;28;20380;-48
2022/04/25 13:04:53;;;;;;;8.15;1.63;;;;;;;;;;4995085;28;20030;-48
2022/04/25 13:07:37;;;;;;;5.10;1.45;;;;;;;;;;5010930;28;20034;-48
2022/04/25 13:10:08;;;;;;;7.88;1.65;;;;;;;;;;4994841;28;20105;-49
2022/04/25 13:12:35;;;;;;;8.00;1.73;;;;;;;;;;4994443;28;20042;-47
2022/04/25 13:15:05;;;;;;;6.28;1.70;;;;;;;;;;4983710;28;20489;-49
2022/04/25 13:17:32;;;;;;;7.00;1.67;;;;;;;;;;5000800;28;20463;-48
2022/04/25 13:19:59;;;;;;;8.13;1.73;;;;;;;;;;5006207;28;20038;-51
2022/04/25 13:22:26;;;;;;;7.57;1.60;;;;;;;;;;5008840;28;20037;-49
2022/04/25 13:24:54;;;;;;;11.57;1.83;;;;;;;;;;4994052;28;20026;-48
2022/04/25 13:27:23;;;;;;;12.35;1.98;;;;;;;;;;4988320;28;20034;-50
2022/04/25 13:29:51;;;;;;;6.93;1.90;;;;;;;;;;4996033;28;20484;-56
2022/04/25 13:32:18;;;;;;;9.65;1.95;;;;;;;;;;5000560;28;20052;-55
2022/04/25 13:34:45;;;;;;;7.47;2.00;;;;;;;;;;5003554;28;20037;-52
2022/04/25 13:37:13;;;;;;;9.10;2.05;;;;;;;;;;5003493;28;20037;-49
2022/04/25 13:39:40;;;;;;;8.18;2.28;;;;;;;;;;5001122;28;20381;-50
2022/04/25 13:42:08;;;;;;;7.95;1.50;;;;;;;;;;4998492;28;20033;-52
2022/04/25 13:44:35;;;;;;;15.50;1.95;;;;;;;;;;4999876;28;20033;-54
2022/04/25 13:47:03;;;;;;;9.65;1.80;;;;;;;;;;4995631;28;20493;-53
2022/04/25 13:49:31;;;;;;;13.73;1.98;;;;;;;;;;5000414;28;20034;-50
2022/04/25 13:51:58;;;;;;;9.02;2.00;;;;;;;;;;4992637;28;20057;-55
2022/04/25 13:54:25;;;;;;;15.23;2.20;;;;;;;;;;4994296;28;20103;-51
2022/04/25 13:56:55;;;;;;;9.65;2.10;;;;;;;;;;5006301;28;20038;-56
2022/04/25 13:59:23;;;;;;;11.52;1.83;;;;;;;;;;5010758;28;20038;-56
2022/04/25 14:01:51;;;;;;;16.23;2.40;;;;;;;;;;4995755;28;20054;-54
2022/04/25 14:04:19;;;;;;;15.32;1.75;;;;;;;;;;4990330;28;20250;-46
2022/04/25 14:06:46;;;;;;;12.00;2.00;;;;;;;;;;4989574;28;20141;-48
2022/04/25 14:09:13;;;;;;;10.35;1.70;;;;;;;;;;4995386;28;20029;-43
2022/04/25 14:11:40;;;;;;;12.45;1.77;;;;;;;;;;4983916;28;20030;-44
2022/04/25 14:14:07;;;;;;;6.40;1.35;;;;;;;;;;4971470;28;20031;-43
2022/04/25 14:16:34;;;;;;;10.40;1.38;;;;;;;;;;4986433;28;20439;-44
2022/04/25 14:19:01;;;;;;;6.38;2.05;;;;;;;;;;4998283;28;20092;-44
2022/04/25 14:21:28;;;;;;;12.77;2.25;;;;;;;;;;4998204;28;20038;-45
2022/04/25 14:23:55;;;;;;;12.77;1.60;;;;;;;;;;4989801;28;20447;-44
2022/04/25 14:26:22;;;;;;;16.73;1.92;;;;;;;;;;4991492;28;20416;-43
2022/04/25 14:28:52;;;;;;;24.23;1.90;;;;;;;;;;4990305;28;20034;-43
2022/04/25 14:31:20;;;;;;;12.77;1.52;;;;;;;;;;4990334;28;20034;-46
2022/04/25 14:33:47;;;;;;;11.18;1.33;;;;;;;;;;5001089;28;20112;-47
2022/04/25 14:36:14;;;;;;;12.93;1.77;;;;;;;;;;5006750;28;20121;-46
2022/04/25 14:38:41;;;;;;;12.40;2.10;;;;;;;;;;5008153;28;20036;-45
2022/04/25 14:41:08;;;;;;;15.18;2.35;;;;;;;;;;4989732;28;20042;-44
2022/04/25 14:43:35;;;;;;;11.98;1.90;;;;;;;;;;4996885;28;20050;-48
2022/04/25 14:46:03;;;;;;;12.45;1.83;;;;;;;;;;4998460;28;20087;-46
2022/04/25 14:48:31;;;;;;;9.30;1.80;;;;;;;;;;4990932;28;20069;-47
2022/04/25 14:56:29;;;;;;;14.73;2.55;;;;;;;;;;5013322;28;20056;-44
2022/04/25 14:58:57;;;;;;;15.65;2.33;;;;;;;;;;5006528;28;20459;-43
2022/04/25 15:01:24;;;;;;;13.73;2.53;;;;;;;;;;4992730;28;20488;-43
2022/04/25 15:03:51;;;;;;;15.65;2.03;;;;;;;;;;4994454;28;20384;-43
2022/04/25 15:06:18;;;;;;;12.20;2.35;;;;;;;;;;4998058;28;20041;-43
2022/04/25 15:08:45;;;;;;;19.35;2.42;;;;;;;;;;5009535;28;20076;-44
2022/04/25 15:11:12;;;;;;;19.00;3.10;;;;;;;;;;4991980;28;20779;-44
2022/04/25 15:13:39;;;;;;;14.68;2.53;;;;;;;;;;4993310;28;20048;-44
2022/04/25 15:16:07;;;;;;;15.45;2.60;;;;;;;;;;4996741;28;20025;-44
2022/04/25 15:18:34;;;;;;;19.15;3.28;;;;;;;;;;5005922;28;20036;-40